Kofu, Japan
Current Conditions -  °F | °C
As of 2:58 PM on Sunday 23 Nov 2014 (Local Time) from RJTY Reporting Station
Clear Clear  
Wind Chill: 64°   Ceiling: Unl
Heat Index: 64°   Visibility: 10mi
Dew Point: 42°   Wind: 5mph
Humidity: 44%   Direction: 100°E
Pressure: 30.19"   Gusts: NA
Location:  35.66°N, 138.57°E
Report Text: RJTY 230558Z AUTO 10004KT 10SM CLR 18/06 A3019 RMK AO2 SLP228 T01800056 10185 20123 53001
Loading
Personal Weather Stations






























Interactive Weather Map New forecast layout! Learn more

10-Day Weather Forecast

Advertisements
Track Severe Weather on mobile